Time;durP1;ratioP1;P1;durP2;ratioP2;P2;SDS_P1;SDS_P2;PMS_P1;PMS_P2;Temp;Humidity;BMP_temperature;BMP_pressure;BME280_temperature;BME280_humidity;BME280_pressure;Samples;Min_cycle;Max_cycle;Signal;HPM_P1;HPM_P2
2024/01/12 00:02:17;;;;;;;30.47;13.60;;;;;;;;;;5053162;28;20225;-72
2024/01/12 00:04:42;;;;;;;34.50;14.20;;;;;;;;;;5054306;28;20229;-73
2024/01/12 00:07:07;;;;;;;31.70;12.97;;;;;;;;;;5052133;28;20236;-73
2024/01/12 00:09:33;;;;;;;36.03;13.73;;;;;;;;;;5048052;28;20241;-73
2024/01/12 00:11:58;;;;;;;30.30;13.23;;;;;;;;;;5048594;28;20947;-74
2024/01/12 00:14:24;;;;;;;30.60;13.27;;;;;;;;;;5039825;28;20216;-74
2024/01/12 00:16:49;;;;;;;27.47;12.13;;;;;;;;;;5036664;28;20725;-73
2024/01/12 00:19:14;;;;;;;27.53;12.27;;;;;;;;;;5053395;28;20706;-72
2024/01/12 00:21:43;;;;;;;29.83;13.07;;;;;;;;;;5035138;28;20230;-73
2024/01/12 00:24:09;;;;;;;33.87;14.13;;;;;;;;;;5044965;28;20312;-73
2024/01/12 00:26:34;;;;;;;32.90;13.67;;;;;;;;;;5049319;28;20359;-72
2024/01/12 00:28:59;;;;;;;32.37;13.17;;;;;;;;;;5053997;28;20290;-72
2024/01/12 00:31:25;;;;;;;35.03;13.93;;;;;;;;;;5052220;28;20225;-72
2024/01/12 00:33:50;;;;;;;34.17;13.87;;;;;;;;;;5051520;28;21315;-72
2024/01/12 00:36:15;;;;;;;30.77;12.93;;;;;;;;;;5034419;28;20637;-72
2024/01/12 00:38:41;;;;;;;31.77;13.47;;;;;;;;;;5053766;28;20720;-73
2024/01/12 00:41:06;;;;;;;33.13;13.60;;;;;;;;;;5053344;28;20711;-73
2024/01/12 00:43:32;;;;;;;28.27;12.73;;;;;;;;;;5034136;28;20243;-72
2024/01/12 00:45:57;;;;;;;34.03;13.50;;;;;;;;;;5050968;28;20229;-73
2024/01/12 00:48:22;;;;;;;29.60;12.70;;;;;;;;;;5054970;28;20874;-73
2024/01/12 00:50:48;;;;;;;31.57;13.53;;;;;;;;;;5048960;28;20247;-72
2024/01/12 00:53:13;;;;;;;32.70;13.33;;;;;;;;;;5052152;28;20220;-72
2024/01/12 00:55:38;;;;;;;33.83;14.00;;;;;;;;;;5037585;28;20477;-73
2024/01/12 00:58:04;;;;;;;31.30;14.13;;;;;;;;;;5060154;28;20312;-73
2024/01/12 01:00:31;;;;;;;31.80;13.07;;;;;;;;;;5036486;28;20257;-73
2024/01/12 01:02:58;;;;;;;31.30;13.20;;;;;;;;;;5034361;28;20221;-73
2024/01/12 01:05:23;;;;;;;31.30;13.03;;;;;;;;;;5054177;28;20805;-73
2024/01/12 01:07:49;;;;;;;27.93;12.73;;;;;;;;;;5033746;28;20237;-72
2024/01/12 01:10:14;;;;;;;29.07;12.30;;;;;;;;;;5054006;28;20324;-73
2024/01/12 01:12:40;;;;;;;31.30;12.43;;;;;;;;;;5052410;28;20225;-73
2024/01/12 01:15:06;;;;;;;32.20;12.40;;;;;;;;;;5048990;28;20225;-73
2024/01/12 01:17:32;;;;;;;27.53;12.00;;;;;;;;;;5049877;28;20982;-73
2024/01/12 01:19:58;;;;;;;27.00;11.73;;;;;;;;;;5054214;28;20217;-72
2024/01/12 01:22:23;;;;;;;26.27;11.53;;;;;;;;;;5037854;28;20229;-73
2024/01/12 01:24:49;;;;;;;26.93;11.27;;;;;;;;;;5048183;28;20240;-72
2024/01/12 01:27:14;;;;;;;24.73;10.80;;;;;;;;;;5037537;28;20281;-73
2024/01/12 01:29:39;;;;;;;26.80;11.47;;;;;;;;;;5048338;28;20235;-73
2024/01/12 01:32:05;;;;;;;26.20;10.90;;;;;;;;;;5051104;28;20213;-72
2024/01/12 01:34:30;;;;;;;25.47;11.10;;;;;;;;;;5037378;28;20225;-73
2024/01/12 01:37:01;;;;;;;26.77;10.97;;;;;;;;;;5060490;28;20236;-73
2024/01/12 01:39:27;;;;;;;23.87;10.40;;;;;;;;;;5049366;28;20222;-74
2024/01/12 01:41:53;;;;;;;25.77;11.43;;;;;;;;;;5037191;28;20244;-75
2024/01/12 01:44:18;;;;;;;26.97;11.40;;;;;;;;;;5037771;28;20329;-75
2024/01/12 01:46:43;;;;;;;26.53;11.30;;;;;;;;;;5053097;28;20233;-75
2024/01/12 01:49:09;;;;;;;23.83;10.00;;;;;;;;;;5036683;28;20607;-75
2024/01/12 01:51:34;;;;;;;28.93;11.73;;;;;;;;;;5036555;28;20236;-75
2024/01/12 01:54:00;;;;;;;29.30;11.90;;;;;;;;;;5048440;28;20604;-75
2024/01/12 01:56:25;;;;;;;30.63;12.47;;;;;;;;;;5041197;28;20232;-75
2024/01/12 01:58:50;;;;;;;27.23;11.50;;;;;;;;;;5041826;28;20296;-74
2024/01/12 02:01:16;;;;;;;27.77;11.67;;;;;;;;;;5035101;28;20307;-76
2024/01/12 02:03:41;;;;;;;29.90;12.07;;;;;;;;;;5033434;28;20247;-74
2024/01/12 02:06:07;;;;;;;30.23;12.43;;;;;;;;;;5035637;28;20248;-75
2024/01/12 02:08:32;;;;;;;31.63;12.37;;;;;;;;;;5050675;28;20230;-74
2024/01/12 02:10:58;;;;;;;30.63;12.50;;;;;;;;;;5034328;28;20258;-73
2024/01/12 02:13:23;;;;;;;33.17;13.33;;;;;;;;;;5037873;28;20229;-74
2024/01/12 02:15:48;;;;;;;27.97;12.37;;;;;;;;;;5049334;28;20353;-74
2024/01/12 02:18:14;;;;;;;28.33;12.13;;;;;;;;;;5043493;28;20221;-72
2024/01/12 02:20:39;;;;;;;28.00;11.90;;;;;;;;;;5052673;28;20606;-75
2024/01/12 02:23:05;;;;;;;28.77;12.50;;;;;;;;;;5034314;28;21274;-74
2024/01/12 02:25:30;;;;;;;31.33;11.67;;;;;;;;;;5049363;28;20688;-74
2024/01/12 02:27:55;;;;;;;27.90;11.77;;;;;;;;;;5034597;28;20221;-74
2024/01/12 02:30:21;;;;;;;28.20;11.70;;;;;;;;;;5043150;28;20295;-74
2024/01/12 02:32:46;;;;;;;28.63;11.40;;;;;;;;;;5048917;28;20232;-75
2024/01/12 02:35:12;;;;;;;28.23;10.93;;;;;;;;;;5052094;28;20765;-74
2024/01/12 02:37:37;;;;;;;27.53;11.90;;;;;;;;;;5036970;28;20214;-75
2024/01/12 02:40:03;;;;;;;26.43;11.10;;;;;;;;;;5036398;28;21155;-75
2024/01/12 02:42:28;;;;;;;28.13;11.50;;;;;;;;;;5042041;28;20701;-74
2024/01/12 02:44:54;;;;;;;27.47;11.33;;;;;;;;;;5039116;28;20260;-75
2024/01/12 02:47:19;;;;;;;27.43;11.47;;;;;;;;;;5054437;28;20259;-75
2024/01/12 02:49:44;;;;;;;24.57;11.20;;;;;;;;;;5055297;28;20705;-74
2024/01/12 02:52:10;;;;;;;30.63;11.53;;;;;;;;;;5056149;28;20286;-72
2024/01/12 02:54:35;;;;;;;27.53;11.23;;;;;;;;;;5039075;28;20244;-73
2024/01/12 02:57:00;;;;;;;24.50;11.10;;;;;;;;;;5054165;28;20952;-73
2024/01/12 02:59:26;;;;;;;25.73;11.30;;;;;;;;;;5038183;28;20312;-74
2024/01/12 03:01:51;;;;;;;23.23;10.67;;;;;;;;;;5044570;28;20221;-75
2024/01/12 03:04:16;;;;;;;27.50;11.47;;;;;;;;;;5054620;28;20216;-73
2024/01/12 03:06:42;;;;;;;26.60;11.23;;;;;;;;;;5037932;28;20336;-75
2024/01/12 03:09:07;;;;;;;28.27;11.50;;;;;;;;;;5039188;28;20320;-74
2024/01/12 03:11:33;;;;;;;28.60;12.00;;;;;;;;;;5050529;28;20221;-74
2024/01/12 03:13:58;;;;;;;30.00;12.60;;;;;;;;;;5046751;28;20221;-74
2024/01/12 03:16:24;;;;;;;28.63;12.27;;;;;;;;;;5036936;28;20283;-74
2024/01/12 03:18:49;;;;;;;27.43;12.20;;;;;;;;;;5054452;28;20246;-74
2024/01/12 03:21:15;;;;;;;30.60;12.43;;;;;;;;;;5051778;28;20331;-75
2024/01/12 03:23:42;;;;;;;29.07;12.37;;;;;;;;;;5036679;28;20240;-75
2024/01/12 03:26:08;;;;;;;27.80;11.87;;;;;;;;;;5046217;28;20289;-75
2024/01/12 03:28:34;;;;;;;26.67;11.33;;;;;;;;;;5053436;28;20714;-75
2024/01/12 03:31:00;;;;;;;29.40;11.73;;;;;;;;;;5053123;28;20271;-74
2024/01/12 03:33:25;;;;;;;28.30;11.80;;;;;;;;;;5035518;28;20624;-74
2024/01/12 03:35:51;;;;;;;28.70;11.47;;;;;;;;;;5037137;28;20839;-75
2024/01/12 03:38:16;;;;;;;25.60;10.67;;;;;;;;;;5054755;28;20259;-73
2024/01/12 03:40:41;;;;;;;27.80;11.90;;;;;;;;;;5053411;28;20236;-74
2024/01/12 03:43:07;;;;;;;25.30;10.53;;;;;;;;;;5054889;28;20225;-75
2024/01/12 03:45:32;;;;;;;27.27;11.20;;;;;;;;;;5052504;28;20225;-75
2024/01/12 03:47:57;;;;;;;26.20;11.47;;;;;;;;;;5037172;28;20243;-74
2024/01/12 03:50:23;;;;;;;30.53;12.00;;;;;;;;;;5047959;28;20652;-74
2024/01/12 03:52:48;;;;;;;28.60;11.73;;;;;;;;;;5034734;28;20213;-74
2024/01/12 03:55:16;;;;;;;33.13;11.60;;;;;;;;;;5061353;28;20319;-74
2024/01/12 03:57:42;;;;;;;27.37;11.70;;;;;;;;;;5044996;28;20644;-74
2024/01/12 04:00:08;;;;;;;28.80;11.90;;;;;;;;;;5038996;28;20236;-74
2024/01/12 04:02:33;;;;;;;27.83;11.77;;;;;;;;;;5037763;28;20769;-74
2024/01/12 04:04:59;;;;;;;25.83;10.93;;;;;;;;;;5054025;28;20225;-74
2024/01/12 04:07:25;;;;;;;29.40;11.73;;;;;;;;;;5054263;28;20672;-75
2024/01/12 04:09:50;;;;;;;27.07;11.50;;;;;;;;;;5032599;28;20296;-75
2024/01/12 04:12:15;;;;;;;26.97;11.23;;;;;;;;;;5038450;28;20213;-74
2024/01/12 04:14:46;;;;;;;30.13;12.87;;;;;;;;;;5050587;28;20225;-74
2024/01/12 04:17:12;;;;;;;32.13;12.63;;;;;;;;;;5050367;28;20638;-73
2024/01/12 04:19:37;;;;;;;33.50;12.97;;;;;;;;;;5037585;28;20260;-73
2024/01/12 04:22:02;;;;;;;33.53;13.47;;;;;;;;;;5051624;28;21027;-71
2024/01/12 04:24:28;;;;;;;33.10;13.50;;;;;;;;;;5038988;28;20588;-72
2024/01/12 04:26:53;;;;;;;33.50;13.43;;;;;;;;;;5037694;28;20264;-72
2024/01/12 04:29:19;;;;;;;30.80;12.97;;;;;;;;;;5034400;28;21433;-72
2024/01/12 04:31:44;;;;;;;36.47;13.50;;;;;;;;;;5049190;28;20305;-72
2024/01/12 04:34:09;;;;;;;33.63;13.33;;;;;;;;;;5047219;28;20331;-72
2024/01/12 04:36:35;;;;;;;32.00;12.50;;;;;;;;;;5059489;28;20609;-72
2024/01/12 04:39:00;;;;;;;30.40;12.77;;;;;;;;;;5050172;28;20314;-73
2024/01/12 04:41:25;;;;;;;32.77;12.93;;;;;;;;;;5043339;28;20255;-72
2024/01/12 04:43:51;;;;;;;34.27;13.60;;;;;;;;;;5042716;28;20299;-71
2024/01/12 04:46:16;;;;;;;32.53;12.90;;;;;;;;;;5049350;28;20232;-73
2024/01/12 04:48:41;;;;;;;32.37;13.10;;;;;;;;;;5049900;28;20244;-72
2024/01/12 04:51:07;;;;;;;33.30;13.20;;;;;;;;;;5051352;28;20243;-71
2024/01/12 04:53:32;;;;;;;31.43;13.63;;;;;;;;;;5048379;28;20212;-72
2024/01/12 04:55:57;;;;;;;33.40;13.10;;;;;;;;;;5050033;28;20606;-72
2024/01/12 04:58:23;;;;;;;36.33;14.23;;;;;;;;;;5048433;28;21003;-73
2024/01/12 05:00:48;;;;;;;33.90;13.20;;;;;;;;;;5050172;28;20220;-72
2024/01/12 05:03:13;;;;;;;31.80;13.67;;;;;;;;;;5049729;28;20301;-72
2024/01/12 05:05:39;;;;;;;33.07;13.87;;;;;;;;;;5047736;28;20311;-73
2024/01/12 05:08:04;;;;;;;34.60;13.20;;;;;;;;;;5047269;28;20260;-73
2024/01/12 05:10:30;;;;;;;32.23;12.77;;;;;;;;;;5036632;28;20269;-72
2024/01/12 05:12:55;;;;;;;31.33;10.77;;;;;;;;;;5036192;28;20308;-72
2024/01/12 05:15:21;;;;;;;33.73;13.67;;;;;;;;;;5052425;28;20233;-75
2024/01/12 05:17:46;;;;;;;34.97;13.03;;;;;;;;;;5048286;28;20221;-75
2024/01/12 05:20:11;;;;;;;32.87;13.30;;;;;;;;;;5050623;28;20274;-74
2024/01/12 05:22:37;;;;;;;35.47;13.30;;;;;;;;;;5048055;28;20270;-73
2024/01/12 05:25:05;;;;;;;33.27;12.97;;;;;;;;;;5050839;28;20802;-73
2024/01/12 05:27:30;;;;;;;33.37;12.97;;;;;;;;;;5037958;28;20232;-73
2024/01/12 05:29:56;;;;;;;35.60;12.90;;;;;;;;;;5047352;28;20237;-72
2024/01/12 05:32:21;;;;;;;37.40;13.77;;;;;;;;;;5040312;28;20231;-73
2024/01/12 05:34:46;;;;;;;34.80;13.47;;;;;;;;;;5033016;28;20290;-73
2024/01/12 05:37:12;;;;;;;35.27;13.83;;;;;;;;;;5034745;28;20919;-73
2024/01/12 05:39:37;;;;;;;34.63;14.10;;;;;;;;;;5051062;28;20271;-74
2024/01/12 05:42:03;;;;;;;36.13;14.17;;;;;;;;;;5053549;28;20282;-73
2024/01/12 05:44:29;;;;;;;39.37;14.43;;;;;;;;;;5049184;28;20236;-73
2024/01/12 05:46:54;;;;;;;34.17;13.83;;;;;;;;;;5035539;28;21065;-73
2024/01/12 05:49:20;;;;;;;35.63;14.13;;;;;;;;;;5041641;28;20244;-73
2024/01/12 05:51:48;;;;;;;36.80;13.93;;;;;;;;;;5044172;28;20348;-72
2024/01/12 05:54:14;;;;;;;36.27;14.30;;;;;;;;;;5047487;28;20233;-72
2024/01/12 05:56:40;;;;;;;35.10;14.00;;;;;;;;;;5057982;28;20233;-72
2024/01/12 05:59:05;;;;;;;36.03;13.93;;;;;;;;;;5035498;28;20236;-74
2024/01/12 06:01:31;;;;;;;35.03;13.47;;;;;;;;;;5046078;28;20221;-73
2024/01/12 06:03:56;;;;;;;34.40;13.33;;;;;;;;;;5035541;28;20225;-73
2024/01/12 06:06:22;;;;;;;36.60;14.10;;;;;;;;;;5049013;28;20244;-72
2024/01/12 06:08:47;;;;;;;29.13;12.50;;;;;;;;;;5048760;28;20217;-74
2024/01/12 06:11:13;;;;;;;32.97;12.37;;;;;;;;;;5046175;28;20261;-73
2024/01/12 06:13:39;;;;;;;34.80;13.60;;;;;;;;;;5057579;28;20662;-74
2024/01/12 06:16:04;;;;;;;36.60;14.00;;;;;;;;;;5050025;28;20261;-73
2024/01/12 06:18:30;;;;;;;31.73;13.40;;;;;;;;;;5055369;28;20263;-72
2024/01/12 06:20:55;;;;;;;35.90;12.97;;;;;;;;;;5051835;28;20228;-73
2024/01/12 06:23:20;;;;;;;33.00;12.73;;;;;;;;;;5053889;28;20225;-73
2024/01/12 06:25:46;;;;;;;32.83;13.03;;;;;;;;;;5052426;28;20707;-72
2024/01/12 06:28:13;;;;;;;31.93;12.70;;;;;;;;;;5056095;28;20225;-75
2024/01/12 06:30:38;;;;;;;35.33;13.33;;;;;;;;;;5039734;28;20286;-72
2024/01/12 06:33:04;;;;;;;30.07;12.53;;;;;;;;;;5053162;28;21217;-72
2024/01/12 06:35:29;;;;;;;36.13;13.10;;;;;;;;;;5055084;28;20280;-72
2024/01/12 06:37:55;;;;;;;33.73;12.63;;;;;;;;;;5052511;28;20725;-73
2024/01/12 06:40:20;;;;;;;29.10;11.30;;;;;;;;;;5037652;28;20316;-72
2024/01/12 06:42:46;;;;;;;29.90;11.90;;;;;;;;;;5053664;28;20269;-72
2024/01/12 06:45:11;;;;;;;34.03;12.27;;;;;;;;;;5043664;28;20229;-73
2024/01/12 06:47:37;;;;;;;34.57;13.30;;;;;;;;;;5040114;28;20260;-73
2024/01/12 06:50:02;;;;;;;34.23;14.17;;;;;;;;;;5043457;28;20253;-73
2024/01/12 06:52:29;;;;;;;33.93;12.77;;;;;;;;;;5054724;28;20275;-73
2024/01/12 06:54:54;;;;;;;33.43;12.90;;;;;;;;;;5046276;28;20232;-72
2024/01/12 06:57:20;;;;;;;36.13;12.70;;;;;;;;;;5037495;28;20229;-74
2024/01/12 06:59:45;;;;;;;30.50;12.10;;;;;;;;;;5051573;28;20718;-73
2024/01/12 07:02:10;;;;;;;33.87;12.57;;;;;;;;;;5053591;28;20281;-74
2024/01/12 07:04:36;;;;;;;32.30;12.00;;;;;;;;;;5061595;28;20217;-74
2024/01/12 07:07:02;;;;;;;31.50;12.63;;;;;;;;;;5051385;28;20287;-73
2024/01/12 07:09:27;;;;;;;28.47;11.50;;;;;;;;;;5063885;28;20238;-73
2024/01/12 07:11:53;;;;;;;30.50;11.40;;;;;;;;;;5057952;28;20240;-72
2024/01/12 07:14:18;;;;;;;30.03;10.93;;;;;;;;;;5052714;28;20247;-73
2024/01/12 07:16:44;;;;;;;34.27;11.93;;;;;;;;;;5049534;28;20229;-74
2024/01/12 07:19:09;;;;;;;29.30;11.20;;;;;;;;;;5053409;28;20229;-73
2024/01/12 07:21:35;;;;;;;34.97;12.00;;;;;;;;;;5060881;28;20228;-73
2024/01/12 07:24:00;;;;;;;34.33;12.20;;;;;;;;;;5051702;28;20572;-74
2024/01/12 07:26:26;;;;;;;31.47;11.47;;;;;;;;;;5049171;28;20333;-73
2024/01/12 07:28:51;;;;;;;31.80;12.13;;;;;;;;;;5052421;28;20225;-74
2024/01/12 07:31:17;;;;;;;32.70;11.70;;;;;;;;;;5053365;28;20248;-74
2024/01/12 07:33:42;;;;;;;35.37;12.43;;;;;;;;;;5040049;28;20228;-75
2024/01/12 07:36:08;;;;;;;34.60;12.33;;;;;;;;;;5053434;28;20220;-74
2024/01/12 07:38:34;;;;;;;34.10;11.80;;;;;;;;;;5058675;28;20233;-74
2024/01/12 07:40:59;;;;;;;34.57;12.10;;;;;;;;;;5053155;28;20595;-74
2024/01/12 07:43:27;;;;;;;31.97;12.40;;;;;;;;;;5052593;28;20232;-74
2024/01/12 07:45:52;;;;;;;34.77;12.00;;;;;;;;;;5062364;28;20232;-74
2024/01/12 07:48:17;;;;;;;34.97;12.10;;;;;;;;;;5043164;28;20229;-73
2024/01/12 07:50:43;;;;;;;36.10;12.30;;;;;;;;;;5060393;28;20245;-73
2024/01/12 07:53:08;;;;;;;32.93;11.90;;;;;;;;;;5048789;28;20768;-74
2024/01/12 07:55:34;;;;;;;35.73;12.90;;;;;;;;;;5061457;28;20220;-74
2024/01/12 07:57:59;;;;;;;34.53;13.10;;;;;;;;;;5053051;28;20308;-74
2024/01/12 08:00:24;;;;;;;38.23;13.47;;;;;;;;;;5054321;28;20665;-75
2024/01/12 08:02:50;;;;;;;38.80;13.90;;;;;;;;;;5044316;28;20260;-73
2024/01/12 08:05:16;;;;;;;39.97;13.43;;;;;;;;;;5045406;28;20231;-75
2024/01/12 08:07:41;;;;;;;39.23;13.90;;;;;;;;;;5039495;28;20237;-75
2024/01/12 08:10:08;;;;;;;36.13;13.20;;;;;;;;;;5054823;28;20249;-74
2024/01/12 08:12:33;;;;;;;45.20;14.40;;;;;;;;;;5050841;28;20225;-73
2024/01/12 08:14:59;;;;;;;34.77;13.10;;;;;;;;;;5050758;28;20624;-74
2024/01/12 08:17:24;;;;;;;42.33;14.17;;;;;;;;;;5051607;28;20684;-74
2024/01/12 08:19:49;;;;;;;41.87;14.27;;;;;;;;;;5041909;28;20337;-73
2024/01/12 08:22:15;;;;;;;45.93;14.57;;;;;;;;;;5050001;28;20226;-73
2024/01/12 08:24:40;;;;;;;43.73;15.07;;;;;;;;;;5037965;28;20238;-72
2024/01/12 08:27:06;;;;;;;39.00;14.53;;;;;;;;;;5037149;28;20217;-73
2024/01/12 08:29:31;;;;;;;41.70;14.87;;;;;;;;;;5060184;28;20312;-74
2024/01/12 08:31:58;;;;;;;39.23;15.17;;;;;;;;;;5050791;28;20337;-73
2024/01/12 08:34:24;;;;;;;44.20;14.87;;;;;;;;;;5049838;28;20317;-73
2024/01/12 08:36:49;;;;;;;43.23;15.23;;;;;;;;;;5053469;28;20304;-73
2024/01/12 08:39:15;;;;;;;40.70;14.67;;;;;;;;;;5049900;28;20225;-74
2024/01/12 08:41:40;;;;;;;39.90;14.40;;;;;;;;;;5051290;28;20225;-73
2024/01/12 08:44:06;;;;;;;41.47;15.03;;;;;;;;;;5036322;28;20232;-73
2024/01/12 08:46:31;;;;;;;42.80;15.20;;;;;;;;;;5050969;28;20615;-73
2024/01/12 08:48:58;;;;;;;44.27;14.57;;;;;;;;;;5054279;28;20228;-73
2024/01/12 08:51:24;;;;;;;41.40;15.60;;;;;;;;;;5052549;28;20236;-71
2024/01/12 08:53:49;;;;;;;42.73;15.40;;;;;;;;;;5059492;28;20221;-73
2024/01/12 08:56:14;;;;;;;44.23;15.63;;;;;;;;;;5050060;28;20237;-73
2024/01/12 08:58:40;;;;;;;45.77;16.00;;;;;;;;;;5054200;28;20231;-73
2024/01/12 09:01:05;;;;;;;40.23;15.43;;;;;;;;;;5042811;28;20229;-73
2024/01/12 09:03:30;;;;;;;44.47;15.67;;;;;;;;;;5051326;28;20224;-73
2024/01/12 09:05:56;;;;;;;45.20;16.33;;;;;;;;;;5037422;28;20264;-73
2024/01/12 09:08:21;;;;;;;46.33;16.73;;;;;;;;;;5052532;28;20311;-73
2024/01/12 09:10:46;;;;;;;48.90;16.93;;;;;;;;;;5049394;28;20299;-73
2024/01/12 09:13:12;;;;;;;46.60;16.13;;;;;;;;;;5052533;28;20224;-73
2024/01/12 09:15:37;;;;;;;47.03;16.43;;;;;;;;;;5052423;28;20233;-73
2024/01/12 09:18:06;;;;;;;44.43;15.27;;;;;;;;;;5052939;28;20311;-73
2024/01/12 09:20:32;;;;;;;45.53;16.37;;;;;;;;;;5052883;28;20212;-73
2024/01/12 09:22:57;;;;;;;46.93;16.60;;;;;;;;;;5043877;28;20219;-73
2024/01/12 09:25:23;;;;;;;45.87;16.10;;;;;;;;;;5049324;28;20233;-73
2024/01/12 09:27:50;;;;;;;52.43;16.90;;;;;;;;;;5056862;28;20239;-73
2024/01/12 09:30:16;;;;;;;49.23;16.63;;;;;;;;;;5049830;28;20293;-73
2024/01/12 09:32:41;;;;;;;45.87;15.83;;;;;;;;;;5040505;28;20938;-73
2024/01/12 09:35:07;;;;;;;50.50;16.57;;;;;;;;;;5052483;28;20280;-75
2024/01/12 09:37:32;;;;;;;46.17;16.30;;;;;;;;;;5038839;28;20228;-74
2024/01/12 09:39:57;;;;;;;46.30;17.00;;;;;;;;;;5038208;28;20233;-74
2024/01/12 09:42:23;;;;;;;47.83;16.60;;;;;;;;;;5050504;28;20594;-71
2024/01/12 09:44:48;;;;;;;51.73;17.87;;;;;;;;;;5048740;28;20606;-73
2024/01/12 09:47:14;;;;;;;46.13;17.63;;;;;;;;;;5059693;28;20247;-73
2024/01/12 09:49:39;;;;;;;51.67;16.77;;;;;;;;;;5034389;28;20349;-73
2024/01/12 09:52:07;;;;;;;53.40;17.23;;;;;;;;;;5054113;28;20282;-73
2024/01/12 09:54:33;;;;;;;44.33;15.90;;;;;;;;;;5039542;28;20902;-72
2024/01/12 09:56:59;;;;;;;49.10;17.47;;;;;;;;;;5055751;28;20274;-73
2024/01/12 09:59:25;;;;;;;51.40;17.10;;;;;;;;;;5050842;28;20228;-72
2024/01/12 10:01:50;;;;;;;47.50;16.50;;;;;;;;;;5052839;28;20228;-71
2024/01/12 10:04:15;;;;;;;51.73;17.07;;;;;;;;;;5054909;28;20319;-72
2024/01/12 10:06:41;;;;;;;48.77;17.30;;;;;;;;;;5037983;28;20249;-73
2024/01/12 10:09:07;;;;;;;53.90;17.43;;;;;;;;;;5056519;28;20217;-73
2024/01/12 10:11:33;;;;;;;48.73;17.40;;;;;;;;;;5053748;28;20260;-73
2024/01/12 10:13:58;;;;;;;53.90;17.90;;;;;;;;;;5040681;28;20697;-72
2024/01/12 10:16:28;;;;;;;52.17;17.17;;;;;;;;;;5058134;28;20254;-73
2024/01/12 10:18:55;;;;;;;48.30;16.63;;;;;;;;;;5042680;28;20264;-72
2024/01/12 10:21:20;;;;;;;48.03;17.17;;;;;;;;;;5041307;28;20796;-73
2024/01/12 10:23:45;;;;;;;51.03;17.17;;;;;;;;;;5056414;28;20221;-72
2024/01/12 10:26:15;;;;;;;48.37;16.83;;;;;;;;;;5056159;28;20225;-74
2024/01/12 10:28:41;;;;;;;47.93;17.37;;;;;;;;;;5042726;28;20237;-73
2024/01/12 10:31:09;;;;;;;46.73;16.23;;;;;;;;;;5055307;28;20310;-71
2024/01/12 10:33:35;;;;;;;47.10;16.53;;;;;;;;;;5056134;28;20317;-73
2024/01/12 10:36:21;;;;;;;49.07;16.63;;;;;;;;;;5044417;28;20592;-73
2024/01/12 10:38:47;;;;;;;51.77;17.70;;;;;;;;;;5055496;28;20237;-72
2024/01/12 10:41:12;;;;;;;47.43;17.23;;;;;;;;;;5063748;28;20287;-73
2024/01/12 10:43:38;;;;;;;46.60;16.47;;;;;;;;;;5049700;28;20213;-75
2024/01/12 10:46:14;;;;;;;47.37;16.67;;;;;;;;;;5039597;28;20246;-73
2024/01/12 10:48:48;;;;;;;47.43;16.83;;;;;;;;;;5055329;28;20286;-73
2024/01/12 10:51:14;;;;;;;47.63;16.27;;;;;;;;;;5054349;28;20320;-73
2024/01/12 10:53:42;;;;;;;47.57;17.07;;;;;;;;;;5041135;28;20932;-73
2024/01/12 10:56:10;;;;;;;50.70;17.97;;;;;;;;;;5035807;28;20356;-75
2024/01/12 10:58:35;;;;;;;52.37;17.30;;;;;;;;;;5055490;28;20221;-77
2024/01/12 11:01:00;;;;;;;55.67;17.83;;;;;;;;;;5045206;28;20228;-76
2024/01/12 11:03:26;;;;;;;50.97;17.33;;;;;;;;;;5042252;28;20249;-77
2024/01/12 11:05:52;;;;;;;56.10;17.93;;;;;;;;;;5039288;28;20232;-76
2024/01/12 11:08:19;;;;;;;53.20;16.23;;;;;;;;;;5053487;28;20221;-77
2024/01/12 11:10:49;;;;;;;52.00;17.70;;;;;;;;;;5038019;28;20233;-75
2024/01/12 11:13:16;;;;;;;52.27;17.57;;;;;;;;;;5040319;28;20727;-75
2024/01/12 11:15:42;;;;;;;48.47;17.43;;;;;;;;;;5040564;28;20257;-75
2024/01/12 11:18:10;;;;;;;50.90;17.10;;;;;;;;;;5064502;28;20616;-76
2024/01/12 11:20:35;;;;;;;45.30;16.03;;;;;;;;;;5037253;28;20229;-77
2024/01/12 11:23:01;;;;;;;53.70;18.67;;;;;;;;;;5041078;28;20243;-76
2024/01/12 11:25:26;;;;;;;54.43;19.10;;;;;;;;;;5059490;28;20318;-75
2024/01/12 11:27:51;;;;;;;51.50;18.40;;;;;;;;;;5045287;28;20232;-76
2024/01/12 11:30:19;;;;;;;52.53;18.33;;;;;;;;;;5051044;28;20332;-76
2024/01/12 11:32:45;;;;;;;51.40;17.70;;;;;;;;;;5051025;28;20232;-76
2024/01/12 11:35:14;;;;;;;53.93;19.33;;;;;;;;;;5041994;28;20216;-76
2024/01/12 11:37:42;;;;;;;54.30;19.47;;;;;;;;;;5056083;28;20256;-76
2024/01/12 11:40:11;;;;;;;50.10;18.70;;;;;;;;;;5052290;28;20229;-76
2024/01/12 11:42:40;;;;;;;55.87;19.20;;;;;;;;;;5051371;28;20256;-77
2024/01/12 11:45:07;;;;;;;53.77;18.93;;;;;;;;;;5053191;28;20726;-77
2024/01/12 11:47:32;;;;;;;53.57;19.67;;;;;;;;;;5034970;28;20623;-73
2024/01/12 11:49:58;;;;;;;54.83;19.43;;;;;;;;;;5038459;28;20237;-73
2024/01/12 11:52:23;;;;;;;60.03;21.30;;;;;;;;;;5048777;28;20217;-72
2024/01/12 11:54:49;;;;;;;54.67;19.70;;;;;;;;;;5052380;28;20224;-73
2024/01/12 11:57:15;;;;;;;52.77;18.57;;;;;;;;;;5055766;28;20225;-72
2024/01/12 11:59:40;;;;;;;55.80;20.70;;;;;;;;;;5039434;28;20230;-72
2024/01/12 12:02:06;;;;;;;59.30;20.20;;;;;;;;;;5051005;28;20217;-72
2024/01/12 12:04:32;;;;;;;56.30;19.70;;;;;;;;;;5037041;28;20225;-74
2024/01/12 12:06:57;;;;;;;53.10;20.07;;;;;;;;;;5038145;28;20255;-75
2024/01/12 12:09:22;;;;;;;58.77;19.87;;;;;;;;;;5048405;28;20679;-74
2024/01/12 12:11:48;;;;;;;57.37;20.57;;;;;;;;;;5040965;28;20243;-74
2024/01/12 12:14:13;;;;;;;57.40;19.77;;;;;;;;;;5038429;28;20259;-74
2024/01/12 12:16:38;;;;;;;60.03;20.10;;;;;;;;;;5048196;28;20229;-73
2024/01/12 12:19:04;;;;;;;58.33;20.20;;;;;;;;;;5040320;28;20229;-73
2024/01/12 12:21:29;;;;;;;59.10;20.13;;;;;;;;;;5052609;28;20218;-73
2024/01/12 12:23:54;;;;;;;63.03;21.07;;;;;;;;;;5037475;28;20236;-72
2024/01/12 12:26:20;;;;;;;60.37;20.33;;;;;;;;;;5039121;28;20232;-73
2024/01/12 12:28:46;;;;;;;55.00;20.13;;;;;;;;;;5051511;28;20228;-73
2024/01/12 12:31:11;;;;;;;53.13;20.17;;;;;;;;;;5036471;28;20239;-74
2024/01/12 12:33:37;;;;;;;62.23;20.70;;;;;;;;;;5061463;28;20227;-78
2024/01/12 12:36:04;;;;;;;54.90;19.93;;;;;;;;;;5053682;28;20227;-71
2024/01/12 12:38:29;;;;;;;59.47;21.20;;;;;;;;;;5035302;28;20221;-74
2024/01/12 12:40:55;;;;;;;58.90;21.10;;;;;;;;;;5048382;28;20620;-73
2024/01/12 12:43:21;;;;;;;61.40;22.17;;;;;;;;;;5049469;28;20214;-72
2024/01/12 12:45:50;;;;;;;59.67;20.53;;;;;;;;;;5040772;28;20225;-73
2024/01/12 12:48:17;;;;;;;56.17;20.00;;;;;;;;;;5035392;28;20220;-72
2024/01/12 12:50:42;;;;;;;60.00;20.93;;;;;;;;;;5038147;28;20241;-73
2024/01/12 12:53:10;;;;;;;58.40;20.10;;;;;;;;;;5049517;28;20731;-74
2024/01/12 12:55:35;;;;;;;61.17;20.33;;;;;;;;;;5052418;28;20228;-72
2024/01/12 12:58:01;;;;;;;66.87;22.70;;;;;;;;;;5054907;28;20221;-72
2024/01/12 13:00:26;;;;;;;64.27;22.87;;;;;;;;;;5039820;28;20320;-73
2024/01/12 13:02:52;;;;;;;55.57;20.27;;;;;;;;;;5043066;28;20220;-72
2024/01/12 13:05:18;;;;;;;58.87;20.97;;;;;;;;;;5051246;28;20229;-73
2024/01/12 13:07:44;;;;;;;61.60;21.63;;;;;;;;;;5045027;28;20703;-74
2024/01/12 13:10:09;;;;;;;63.83;21.57;;;;;;;;;;5037398;28;20307;-73
2024/01/12 13:12:35;;;;;;;60.10;21.87;;;;;;;;;;5032527;28;20249;-73
2024/01/12 13:15:00;;;;;;;60.53;20.27;;;;;;;;;;5050598;28;20282;-74
2024/01/12 13:17:26;;;;;;;56.63;19.73;;;;;;;;;;5036836;28;20230;-73
2024/01/12 13:19:52;;;;;;;60.57;20.67;;;;;;;;;;5055520;28;20243;-73
2024/01/12 13:22:17;;;;;;;53.87;19.57;;;;;;;;;;5055707;28;20221;-73
2024/01/12 13:24:43;;;;;;;58.53;20.90;;;;;;;;;;5052069;28;20293;-73
2024/01/12 13:27:08;;;;;;;57.00;20.20;;;;;;;;;;5055613;28;20229;-72
2024/01/12 13:29:34;;;;;;;60.73;21.53;;;;;;;;;;5037012;28;20232;-75
2024/01/12 13:32:02;;;;;;;58.77;21.50;;;;;;;;;;5040666;28;20220;-76
2024/01/12 13:34:28;;;;;;;58.23;20.93;;;;;;;;;;5039334;28;20289;-75
2024/01/12 13:36:54;;;;;;;64.43;21.83;;;;;;;;;;5052265;28;20689;-76
2024/01/12 13:39:20;;;;;;;66.13;22.90;;;;;;;;;;5038141;28;20289;-76
2024/01/12 13:41:45;;;;;;;63.80;21.17;;;;;;;;;;5035160;28;20687;-76
2024/01/12 13:44:10;;;;;;;60.97;21.47;;;;;;;;;;5060172;28;20233;-77
2024/01/12 13:46:38;;;;;;;60.57;21.27;;;;;;;;;;5049017;28;20714;-75
2024/01/12 13:49:04;;;;;;;56.23;20.73;;;;;;;;;;5050978;28;20228;-72
2024/01/12 13:51:29;;;;;;;58.10;21.10;;;;;;;;;;5034492;28;20240;-73
2024/01/12 13:53:54;;;;;;;58.93;20.60;;;;;;;;;;5036106;28;20229;-73
2024/01/12 13:56:21;;;;;;;59.60;20.07;;;;;;;;;;5060808;28;20242;-74
2024/01/12 13:58:46;;;;;;;58.30;20.90;;;;;;;;;;5032986;28;20312;-74
2024/01/12 14:01:12;;;;;;;61.20;21.03;;;;;;;;;;5051738;28;20320;-76
2024/01/12 14:03:37;;;;;;;57.10;20.30;;;;;;;;;;5051601;28;20225;-76
2024/01/12 14:06:04;;;;;;;48.27;17.00;;;;;;;;;;5042302;28;20245;-77
2024/01/12 14:08:29;;;;;;;54.67;19.00;;;;;;;;;;5043291;28;20221;-76